sensor_id;sensor_type;location;lat;lon;timestamp;temperature;humidity
3330;DHT22;1677;49.576;10.990;2023-04-15T00:00:41;6.20;99.90
3330;DHT22;1677;49.576;10.990;2023-04-15T00:03:06;6.20;99.90
3330;DHT22;1677;49.576;10.990;2023-04-15T00:05:32;6.20;99.90
3330;DHT22;1677;49.576;10.990;2023-04-15T00:07:59;6.20;99.90
3330;DHT22;1677;49.576;10.990;2023-04-15T00:10:25;6.20;99.90
3330;DHT22;1677;49.576;10.990;2023-04-15T00:12:50;6.30;99.90
3330;DHT22;1677;49.576;10.990;2023-04-15T00:15:16;6.30;99.90
3330;DHT22;1677;49.576;10.990;2023-04-15T00:17:42;6.30;99.90
3330;DHT22;1677;49.576;10.990;2023-04-15T00:20:08;6.30;99.90
3330;DHT22;1677;49.576;10.990;2023-04-15T00:22:34;6.30;99.90
3330;DHT22;1677;49.576;10.990;2023-04-15T00:25:00;6.40;99.90
3330;DHT22;1677;49.576;10.990;2023-04-15T00:27:26;6.40;99.90
3330;DHT22;1677;49.576;10.990;2023-04-15T00:29:52;6.40;99.90
3330;DHT22;1677;49.576;10.990;2023-04-15T00:32:17;6.50;99.90
3330;DHT22;1677;49.576;10.990;2023-04-15T00:34:43;6.50;99.90
3330;DHT22;1677;49.576;10.990;2023-04-15T00:37:09;6.40;99.90
3330;DHT22;1677;49.576;10.990;2023-04-15T00:39:35;6.40;99.90
3330;DHT22;1677;49.576;10.990;2023-04-15T00:42:01;6.50;99.90
3330;DHT22;1677;49.576;10.990;2023-04-15T00:44:29;6.50;99.90
3330;DHT22;1677;49.576;10.990;2023-04-15T00:46:56;6.50;99.90
3330;DHT22;1677;49.576;10.990;2023-04-15T00:49:22;6.50;99.90
3330;DHT22;1677;49.576;10.990;2023-04-15T00:51:49;6.50;99.90
3330;DHT22;1677;49.576;10.990;2023-04-15T00:54:14;6.50;99.90
3330;DHT22;1677;49.576;10.990;2023-04-15T00:56:40;6.50;99.90
3330;DHT22;1677;49.576;10.990;2023-04-15T00:59:07;6.60;99.90
3330;DHT22;1677;49.576;10.990;2023-04-15T01:01:34;6.60;99.90
3330;DHT22;1677;49.576;10.990;2023-04-15T01:04:01;6.50;99.90
3330;DHT22;1677;49.576;10.990;2023-04-15T01:06:27;6.60;99.90
3330;DHT22;1677;49.576;10.990;2023-04-15T01:08:54;6.50;99.90
3330;DHT22;1677;49.576;10.990;2023-04-15T01:11:20;6.60;99.90
3330;DHT22;1677;49.576;10.990;2023-04-15T01:13:48;6.60;99.90
3330;DHT22;1677;49.576;10.990;2023-04-15T01:16:14;6.50;99.90
3330;DHT22;1677;49.576;10.990;2023-04-15T01:18:41;6.60;99.90
3330;DHT22;1677;49.576;10.990;2023-04-15T01:21:06;6.60;99.90
3330;DHT22;1677;49.576;10.990;2023-04-15T01:23:35;6.50;99.90
3330;DHT22;1677;49.576;10.990;2023-04-15T01:26:03;6.60;99.90
3330;DHT22;1677;49.576;10.990;2023-04-15T01:28:29;6.60;99.90
3330;DHT22;1677;49.576;10.990;2023-04-15T01:31:12;6.50;99.90
3330;DHT22;1677;49.576;10.990;2023-04-15T01:33:39;6.50;99.90
3330;DHT22;1677;49.576;10.990;2023-04-15T01:36:06;6.50;99.90
3330;DHT22;1677;49.576;10.990;2023-04-15T01:38:33;6.50;99.90
3330;DHT22;1677;49.576;10.990;2023-04-15T01:40:59;6.50;99.90
3330;DHT22;1677;49.576;10.990;2023-04-15T01:43:25;6.50;99.90
3330;DHT22;1677;49.576;10.990;2023-04-15T01:45:51;6.50;99.90
3330;DHT22;1677;49.576;10.990;2023-04-15T01:48:16;6.50;99.90
3330;DHT22;1677;49.576;10.990;2023-04-15T01:50:42;6.60;99.90
3330;DHT22;1677;49.576;10.990;2023-04-15T01:53:08;6.60;99.90
3330;DHT22;1677;49.576;10.990;2023-04-15T01:55:34;6.50;99.90
3330;DHT22;1677;49.576;10.990;2023-04-15T01:57:59;6.60;99.90
3330;DHT22;1677;49.576;10.990;2023-04-15T02:00:25;6.50;99.90
3330;DHT22;1677;49.576;10.990;2023-04-15T02:02:51;6.50;99.90
3330;DHT22;1677;49.576;10.990;2023-04-15T02:05:17;6.50;99.90
3330;DHT22;1677;49.576;10.990;2023-04-15T02:07:43;6.50;99.90
3330;DHT22;1677;49.576;10.990;2023-04-15T02:10:08;6.50;99.90
3330;DHT22;1677;49.576;10.990;2023-04-15T02:12:34;6.50;99.90
3330;DHT22;1677;49.576;10.990;2023-04-15T02:15:00;6.50;99.90
3330;DHT22;1677;49.576;10.990;2023-04-15T02:17:26;6.50;99.90
3330;DHT22;1677;49.576;10.990;2023-04-15T02:19:52;6.50;99.90
3330;DHT22;1677;49.576;10.990;2023-04-15T02:22:18;6.50;99.90
3330;DHT22;1677;49.576;10.990;2023-04-15T02:24:44;6.50;99.90
3330;DHT22;1677;49.576;10.990;2023-04-15T02:27:14;6.50;99.90
3330;DHT22;1677;49.576;10.990;2023-04-15T02:29:39;6.50;99.90
3330;DHT22;1677;49.576;10.990;2023-04-15T02:32:05;6.50;99.90
3330;DHT22;1677;49.576;10.990;2023-04-15T02:34:31;6.50;99.90
3330;DHT22;1677;49.576;10.990;2023-04-15T02:36:58;6.50;99.90
3330;DHT22;1677;49.576;10.990;2023-04-15T02:39:23;6.50;99.90
3330;DHT22;1677;49.576;10.990;2023-04-15T02:41:49;6.50;99.90
3330;DHT22;1677;49.576;10.990;2023-04-15T02:44:17;6.50;99.90
3330;DHT22;1677;49.576;10.990;2023-04-15T02:46:45;6.50;99.90
3330;DHT22;1677;49.576;10.990;2023-04-15T02:49:17;6.40;99.90
3330;DHT22;1677;49.576;10.990;2023-04-15T02:51:42;6.50;99.90
3330;DHT22;1677;49.576;10.990;2023-04-15T02:54:09;6.50;99.90
3330;DHT22;1677;49.576;10.990;2023-04-15T02:56:35;6.50;99.90
3330;DHT22;1677;49.576;10.990;2023-04-15T02:59:00;6.50;99.90
3330;DHT22;1677;49.576;10.990;2023-04-15T03:01:26;6.50;99.90
3330;DHT22;1677;49.576;10.990;2023-04-15T03:03:51;6.50;99.90
3330;DHT22;1677;49.576;10.990;2023-04-15T03:06:17;6.50;99.90
3330;DHT22;1677;49.576;10.990;2023-04-15T03:08:43;6.50;99.90
3330;DHT22;1677;49.576;10.990;2023-04-15T03:11:08;6.50;99.90
3330;DHT22;1677;49.576;10.990;2023-04-15T03:13:34;6.60;99.90
3330;DHT22;1677;49.576;10.990;2023-04-15T03:16:00;6.60;99.90
3330;DHT22;1677;49.576;10.990;2023-04-15T03:18:25;6.70;99.90
3330;DHT22;1677;49.576;10.990;2023-04-15T03:20:51;6.70;99.90
3330;DHT22;1677;49.576;10.990;2023-04-15T03:23:16;6.70;99.90
3330;DHT22;1677;49.576;10.990;2023-04-15T03:25:43;6.60;99.90
3330;DHT22;1677;49.576;10.990;2023-04-15T03:28:09;6.60;99.90
3330;DHT22;1677;49.576;10.990;2023-04-15T03:30:35;6.60;99.90
3330;DHT22;1677;49.576;10.990;2023-04-15T03:33:00;6.60;99.90
3330;DHT22;1677;49.576;10.990;2023-04-15T03:35:26;6.50;99.90
3330;DHT22;1677;49.576;10.990;2023-04-15T03:37:51;6.50;99.90
3330;DHT22;1677;49.576;10.990;2023-04-15T03:40:17;6.50;99.90
3330;DHT22;1677;49.576;10.990;2023-04-15T03:42:42;6.50;99.90
3330;DHT22;1677;49.576;10.990;2023-04-15T03:45:08;6.40;99.90
3330;DHT22;1677;49.576;10.990;2023-04-15T03:47:34;6.40;99.90
3330;DHT22;1677;49.576;10.990;2023-04-15T03:50:00;6.50;99.90
3330;DHT22;1677;49.576;10.990;2023-04-15T03:52:25;6.50;99.90
3330;DHT22;1677;49.576;10.990;2023-04-15T03:54:51;6.40;99.90
3330;DHT22;1677;49.576;10.990;2023-04-15T03:57:17;6.50;99.90
3330;DHT22;1677;49.576;10.990;2023-04-15T03:59:42;6.50;99.90
3330;DHT22;1677;49.576;10.990;2023-04-15T04:02:08;6.50;99.90
3330;DHT22;1677;49.576;10.990;2023-04-15T04:04:33;6.50;99.90
3330;DHT22;1677;49.576;10.990;2023-04-15T04:06:59;6.50;99.90
3330;DHT22;1677;49.576;10.990;2023-04-15T04:09:24;6.50;99.90
3330;DHT22;1677;49.576;10.990;2023-04-15T04:11:50;6.50;99.90
3330;DHT22;1677;49.576;10.990;2023-04-15T04:14:15;6.50;99.90
3330;DHT22;1677;49.576;10.990;2023-04-15T04:16:41;6.50;99.90
3330;DHT22;1677;49.576;10.990;2023-04-15T04:19:07;6.50;99.90
3330;DHT22;1677;49.576;10.990;2023-04-15T04:21:33;6.60;99.90
3330;DHT22;1677;49.576;10.990;2023-04-15T04:23:59;6.60;99.90
3330;DHT22;1677;49.576;10.990;2023-04-15T04:26:24;6.60;99.90
3330;DHT22;1677;49.576;10.990;2023-04-15T04:28:50;6.60;99.90
3330;DHT22;1677;49.576;10.990;2023-04-15T04:31:16;6.60;99.90
3330;DHT22;1677;49.576;10.990;2023-04-15T04:33:41;6.60;99.90
3330;DHT22;1677;49.576;10.990;2023-04-15T04:36:07;6.60;99.90
3330;DHT22;1677;49.576;10.990;2023-04-15T04:38:33;6.70;99.90
3330;DHT22;1677;49.576;10.990;2023-04-15T04:40:59;6.70;99.90
3330;DHT22;1677;49.576;10.990;2023-04-15T04:43:24;6.70;99.90
3330;DHT22;1677;49.576;10.990;2023-04-15T04:45:50;6.70;99.90
3330;DHT22;1677;49.576;10.990;2023-04-15T04:48:16;6.70;99.90
3330;DHT22;1677;49.576;10.990;2023-04-15T04:50:42;6.70;99.90
3330;DHT22;1677;49.576;10.990;2023-04-15T04:53:09;6.80;99.90
3330;DHT22;1677;49.576;10.990;2023-04-15T04:55:34;6.80;99.90
3330;DHT22;1677;49.576;10.990;2023-04-15T04:58:01;6.80;99.90
3330;DHT22;1677;49.576;10.990;2023-04-15T05:00:27;6.90;99.90
3330;DHT22;1677;49.576;10.990;2023-04-15T05:02:53;6.90;99.90
3330;DHT22;1677;49.576;10.990;2023-04-15T05:05:19;6.90;99.90
3330;DHT22;1677;49.576;10.990;2023-04-15T05:07:44;7.10;99.90
3330;DHT22;1677;49.576;10.990;2023-04-15T05:10:10;7.10;99.90
3330;DHT22;1677;49.576;10.990;2023-04-15T05:12:36;7.00;99.90
3330;DHT22;1677;49.576;10.990;2023-04-15T05:15:03;7.20;99.90
3330;DHT22;1677;49.576;10.990;2023-04-15T05:17:29;7.20;99.90
3330;DHT22;1677;49.576;10.990;2023-04-15T05:19:56;7.20;99.90
3330;DHT22;1677;49.576;10.990;2023-04-15T05:22:21;7.20;99.90
3330;DHT22;1677;49.576;10.990;2023-04-15T05:24:47;7.40;99.90
3330;DHT22;1677;49.576;10.990;2023-04-15T05:27:12;7.50;99.90
3330;DHT22;1677;49.576;10.990;2023-04-15T05:29:38;7.80;99.90
3330;DHT22;1677;49.576;10.990;2023-04-15T05:32:04;7.80;99.90
3330;DHT22;1677;49.576;10.990;2023-04-15T05:34:30;7.80;99.90
3330;DHT22;1677;49.576;10.990;2023-04-15T05:36:55;7.80;99.90
3330;DHT22;1677;49.576;10.990;2023-04-15T05:39:21;7.90;99.90
3330;DHT22;1677;49.576;10.990;2023-04-15T05:41:46;8.00;99.90
3330;DHT22;1677;49.576;10.990;2023-04-15T05:44:12;8.00;99.90
3330;DHT22;1677;49.576;10.990;2023-04-15T05:46:38;8.00;99.90
3330;DHT22;1677;49.576;10.990;2023-04-15T05:49:03;8.10;99.90
3330;DHT22;1677;49.576;10.990;2023-04-15T05:51:29;8.10;99.90
3330;DHT22;1677;49.576;10.990;2023-04-15T05:53:54;8.10;99.90
3330;DHT22;1677;49.576;10.990;2023-04-15T05:56:20;8.10;99.90
3330;DHT22;1677;49.576;10.990;2023-04-15T05:58:46;8.10;99.90
3330;DHT22;1677;49.576;10.990;2023-04-15T06:01:12;8.10;99.90
3330;DHT22;1677;49.576;10.990;2023-04-15T06:03:37;8.20;99.90
3330;DHT22;1677;49.576;10.990;2023-04-15T06:06:03;8.20;99.90
3330;DHT22;1677;49.576;10.990;2023-04-15T06:08:29;8.20;99.90
3330;DHT22;1677;49.576;10.990;2023-04-15T06:10:55;8.30;99.90
3330;DHT22;1677;49.576;10.990;2023-04-15T06:13:20;8.20;99.90
3330;DHT22;1677;49.576;10.990;2023-04-15T06:15:46;8.20;99.90
3330;DHT22;1677;49.576;10.990;2023-04-15T06:18:12;8.30;99.90
3330;DHT22;1677;49.576;10.990;2023-04-15T06:20:37;8.30;99.90
3330;DHT22;1677;49.576;10.990;2023-04-15T06:23:03;8.40;99.90
3330;DHT22;1677;49.576;10.990;2023-04-15T06:25:28;8.40;99.90
3330;DHT22;1677;49.576;10.990;2023-04-15T06:27:54;8.50;99.90
3330;DHT22;1677;49.576;10.990;2023-04-15T06:30:20;8.50;99.90
3330;DHT22;1677;49.576;10.990;2023-04-15T06:32:45;8.50;99.90
3330;DHT22;1677;49.576;10.990;2023-04-15T06:35:11;8.50;99.90
3330;DHT22;1677;49.576;10.990;2023-04-15T06:37:37;8.60;99.90
3330;DHT22;1677;49.576;10.990;2023-04-15T06:40:02;8.60;99.90
3330;DHT22;1677;49.576;10.990;2023-04-15T06:42:29;8.50;99.90
3330;DHT22;1677;49.576;10.990;2023-04-15T06:44:55;8.50;99.90
3330;DHT22;1677;49.576;10.990;2023-04-15T06:47:21;8.60;99.90
3330;DHT22;1677;49.576;10.990;2023-04-15T06:49:46;8.50;99.90
3330;DHT22;1677;49.576;10.990;2023-04-15T06:52:12;8.60;99.90
3330;DHT22;1677;49.576;10.990;2023-04-15T06:54:37;8.70;99.90
3330;DHT22;1677;49.576;10.990;2023-04-15T06:57:04;8.80;99.90
3330;DHT22;1677;49.576;10.990;2023-04-15T06:59:31;8.90;99.90
3330;DHT22;1677;49.576;10.990;2023-04-15T07:01:57;9.00;99.90
3330;DHT22;1677;49.576;10.990;2023-04-15T07:04:22;9.00;99.90
3330;DHT22;1677;49.576;10.990;2023-04-15T07:06:48;9.10;99.90
3330;DHT22;1677;49.576;10.990;2023-04-15T07:09:14;9.20;99.90
3330;DHT22;1677;49.576;10.990;2023-04-15T07:11:39;9.10;99.90
3330;DHT22;1677;49.576;10.990;2023-04-15T07:14:05;9.40;99.90
3330;DHT22;1677;49.576;10.990;2023-04-15T07:16:31;9.40;99.90
3330;DHT22;1677;49.576;10.990;2023-04-15T07:18:56;9.40;99.90
3330;DHT22;1677;49.576;10.990;2023-04-15T07:21:23;9.50;99.90
3330;DHT22;1677;49.576;10.990;2023-04-15T07:23:48;9.40;99.90
3330;DHT22;1677;49.576;10.990;2023-04-15T07:26:14;9.50;99.90
3330;DHT22;1677;49.576;10.990;2023-04-15T07:28:39;9.50;99.90
3330;DHT22;1677;49.576;10.990;2023-04-15T07:31:05;9.60;99.90
3330;DHT22;1677;49.576;10.990;2023-04-15T07:33:31;9.60;99.90
3330;DHT22;1677;49.576;10.990;2023-04-15T07:35:56;9.60;99.90
3330;DHT22;1677;49.576;10.990;2023-04-15T07:38:22;9.90;99.90
3330;DHT22;1677;49.576;10.990;2023-04-15T07:40:48;10.10;99.90
3330;DHT22;1677;49.576;10.990;2023-04-15T07:43:14;10.10;99.90
3330;DHT22;1677;49.576;10.990;2023-04-15T07:45:39;10.10;99.90
3330;DHT22;1677;49.576;10.990;2023-04-15T07:48:05;10.10;99.90
3330;DHT22;1677;49.576;10.990;2023-04-15T07:50:31;10.10;99.90
3330;DHT22;1677;49.576;10.990;2023-04-15T07:52:57;10.10;99.90
3330;DHT22;1677;49.576;10.990;2023-04-15T07:55:23;10.00;99.90
3330;DHT22;1677;49.576;10.990;2023-04-15T07:57:48;10.10;99.90
3330;DHT22;1677;49.576;10.990;2023-04-15T08:00:15;10.20;99.90
3330;DHT22;1677;49.576;10.990;2023-04-15T08:02:42;10.20;99.90
3330;DHT22;1677;49.576;10.990;2023-04-15T08:05:08;10.40;99.90
3330;DHT22;1677;49.576;10.990;2023-04-15T08:07:36;10.40;99.90
3330;DHT22;1677;49.576;10.990;2023-04-15T08:10:02;10.20;99.90
3330;DHT22;1677;49.576;10.990;2023-04-15T08:12:27;10.10;99.90
3330;DHT22;1677;49.576;10.990;2023-04-15T08:14:54;10.00;99.90
3330;DHT22;1677;49.576;10.990;2023-04-15T08:17:20;9.90;99.90
3330;DHT22;1677;49.576;10.990;2023-04-15T08:19:45;9.80;99.90
3330;DHT22;1677;49.576;10.990;2023-04-15T08:22:12;9.80;99.90
3330;DHT22;1677;49.576;10.990;2023-04-15T08:24:38;9.70;99.90
3330;DHT22;1677;49.576;10.990;2023-04-15T08:27:04;9.70;99.90
3330;DHT22;1677;49.576;10.990;2023-04-15T08:29:30;9.60;99.90
3330;DHT22;1677;49.576;10.990;2023-04-15T08:31:56;9.60;99.90
3330;DHT22;1677;49.576;10.990;2023-04-15T08:34:23;9.40;99.90
3330;DHT22;1677;49.576;10.990;2023-04-15T08:36:49;9.50;99.90
3330;DHT22;1677;49.576;10.990;2023-04-15T08:39:15;9.40;99.90
3330;DHT22;1677;49.576;10.990;2023-04-15T08:41:51;9.30;99.90
3330;DHT22;1677;49.576;10.990;2023-04-15T08:44:22;9.40;99.90
3330;DHT22;1677;49.576;10.990;2023-04-15T08:46:48;9.40;99.90
3330;DHT22;1677;49.576;10.990;2023-04-15T08:49:14;9.20;99.90
3330;DHT22;1677;49.576;10.990;2023-04-15T08:51:42;9.30;99.90
3330;DHT22;1677;49.576;10.990;2023-04-15T08:54:08;9.30;99.90
3330;DHT22;1677;49.576;10.990;2023-04-15T08:56:37;9.30;99.90
3330;DHT22;1677;49.576;10.990;2023-04-15T08:59:03;9.40;99.90
3330;DHT22;1677;49.576;10.990;2023-04-15T09:01:30;9.50;99.90
3330;DHT22;1677;49.576;10.990;2023-04-15T09:03:56;9.40;99.90
3330;DHT22;1677;49.576;10.990;2023-04-15T09:06:24;9.30;99.90
3330;DHT22;1677;49.576;10.990;2023-04-15T09:08:50;9.20;99.90
3330;DHT22;1677;49.576;10.990;2023-04-15T09:11:17;9.20;99.90
3330;DHT22;1677;49.576;10.990;2023-04-15T09:13:43;9.10;99.90
3330;DHT22;1677;49.576;10.990;2023-04-15T09:16:08;9.10;99.90
3330;DHT22;1677;49.576;10.990;2023-04-15T09:18:37;9.10;99.90
3330;DHT22;1677;49.576;10.990;2023-04-15T09:21:10;9.10;99.90
3330;DHT22;1677;49.576;10.990;2023-04-15T09:23:37;9.00;99.90
3330;DHT22;1677;49.576;10.990;2023-04-15T09:26:04;8.90;99.90
3330;DHT22;1677;49.576;10.990;2023-04-15T09:28:30;8.90;99.90
3330;DHT22;1677;49.576;10.990;2023-04-15T09:31:00;9.00;99.90
3330;DHT22;1677;49.576;10.990;2023-04-15T09:33:28;9.20;99.90
3330;DHT22;1677;49.576;10.990;2023-04-15T09:36:02;9.30;99.90
3330;DHT22;1677;49.576;10.990;2023-04-15T09:38:29;9.30;99.90
3330;DHT22;1677;49.576;10.990;2023-04-15T09:40:55;9.30;99.90
3330;DHT22;1677;49.576;10.990;2023-04-15T09:43:22;9.50;99.90
3330;DHT22;1677;49.576;10.990;2023-04-15T09:45:50;9.80;99.90
3330;DHT22;1677;49.576;10.990;2023-04-15T09:48:20;9.90;99.90
3330;DHT22;1677;49.576;10.990;2023-04-15T09:50:47;9.70;99.90
3330;DHT22;1677;49.576;10.990;2023-04-15T09:53:19;9.50;99.90
3330;DHT22;1677;49.576;10.990;2023-04-15T09:55:51;9.50;99.90
3330;DHT22;1677;49.576;10.990;2023-04-15T09:58:21;9.40;99.90
3330;DHT22;1677;49.576;10.990;2023-04-15T10:00:48;9.40;99.90
3330;DHT22;1677;49.576;10.990;2023-04-15T10:03:18;9.30;99.90
3330;DHT22;1677;49.576;10.990;2023-04-15T10:05:45;9.30;99.90
3330;DHT22;1677;49.576;10.990;2023-04-15T10:08:12;9.30;99.90
3330;DHT22;1677;49.576;10.990;2023-04-15T10:10:38;9.40;99.90
3330;DHT22;1677;49.576;10.990;2023-04-15T10:13:05;9.20;99.90
3330;DHT22;1677;49.576;10.990;2023-04-15T10:15:31;9.10;99.90
3330;DHT22;1677;49.576;10.990;2023-04-15T10:17:59;9.00;99.90
3330;DHT22;1677;49.576;10.990;2023-04-15T10:20:25;9.10;99.90
3330;DHT22;1677;49.576;10.990;2023-04-15T10:22:54;9.30;99.90
3330;DHT22;1677;49.576;10.990;2023-04-15T10:25:20;9.30;99.90
3330;DHT22;1677;49.576;10.990;2023-04-15T10:27:46;9.30;99.90
3330;DHT22;1677;49.576;10.990;2023-04-15T10:30:13;9.40;99.90
3330;DHT22;1677;49.576;10.990;2023-04-15T10:32:40;9.50;99.90
3330;DHT22;1677;49.576;10.990;2023-04-15T10:35:06;9.50;99.90
3330;DHT22;1677;49.576;10.990;2023-04-15T10:37:36;9.40;99.90
3330;DHT22;1677;49.576;10.990;2023-04-15T10:42:54;9.30;99.90
3330;DHT22;1677;49.576;10.990;2023-04-15T10:45:20;9.50;99.90
3330;DHT22;1677;49.576;10.990;2023-04-15T10:47:50;9.90;99.90
3330;DHT22;1677;49.576;10.990;2023-04-15T10:50:18;10.50;99.90
3330;DHT22;1677;49.576;10.990;2023-04-15T10:52:43;11.60;99.90
3330;DHT22;1677;49.576;10.990;2023-04-15T10:55:13;12.60;99.90
3330;DHT22;1677;49.576;10.990;2023-04-15T10:57:41;12.60;99.90
3330;DHT22;1677;49.576;10.990;2023-04-15T11:00:14;12.40;99.90
3330;DHT22;1677;49.576;10.990;2023-04-15T11:02:41;12.10;99.90
3330;DHT22;1677;49.576;10.990;2023-04-15T11:05:08;11.90;99.90
3330;DHT22;1677;49.576;10.990;2023-04-15T11:15:44;10.50;99.90
3330;DHT22;1677;49.576;10.990;2023-04-15T11:18:15;10.40;99.90
3330;DHT22;1677;49.576;10.990;2023-04-15T11:20:42;10.30;99.90
3330;DHT22;1677;49.576;10.990;2023-04-15T11:23:11;10.20;99.90
3330;DHT22;1677;49.576;10.990;2023-04-15T11:25:37;10.30;99.90
3330;DHT22;1677;49.576;10.990;2023-04-15T11:28:03;10.60;99.90
3330;DHT22;1677;49.576;10.990;2023-04-15T11:30:31;10.70;99.90
3330;DHT22;1677;49.576;10.990;2023-04-15T11:32:59;10.70;99.90
3330;DHT22;1677;49.576;10.990;2023-04-15T11:35:25;10.70;99.90
3330;DHT22;1677;49.576;10.990;2023-04-15T11:37:51;10.70;99.90
3330;DHT22;1677;49.576;10.990;2023-04-15T11:40:21;10.50;99.90
3330;DHT22;1677;49.576;10.990;2023-04-15T11:43:07;10.50;99.90
3330;DHT22;1677;49.576;10.990;2023-04-15T11:45:33;10.40;99.90
3330;DHT22;1677;49.576;10.990;2023-04-15T11:48:09;10.40;99.90
3330;DHT22;1677;49.576;10.990;2023-04-15T11:50:36;10.10;99.90
3330;DHT22;1677;49.576;10.990;2023-04-15T11:53:04;10.00;99.90
3330;DHT22;1677;49.576;10.990;2023-04-15T11:55:30;10.10;99.90
3330;DHT22;1677;49.576;10.990;2023-04-15T11:58:21;10.10;99.90
3330;DHT22;1677;49.576;10.990;2023-04-15T12:00:55;10.20;99.90
3330;DHT22;1677;49.576;10.990;2023-04-15T12:03:35;10.40;99.90
3330;DHT22;1677;49.576;10.990;2023-04-15T12:06:19;10.40;99.90
3330;DHT22;1677;49.576;10.990;2023-04-15T12:14:03;11.00;99.90
3330;DHT22;1677;49.576;10.990;2023-04-15T12:16:29;11.20;99.90
3330;DHT22;1677;49.576;10.990;2023-04-15T12:18:56;11.30;99.90
3330;DHT22;1677;49.576;10.990;2023-04-15T12:21:25;11.30;99.90
3330;DHT22;1677;49.576;10.990;2023-04-15T12:23:57;11.30;99.90
3330;DHT22;1677;49.576;10.990;2023-04-15T12:26:28;11.30;99.90
3330;DHT22;1677;49.576;10.990;2023-04-15T12:29:03;11.30;99.90
3330;DHT22;1677;49.576;10.990;2023-04-15T12:31:29;11.30;99.90
3330;DHT22;1677;49.576;10.990;2023-04-15T12:33:56;11.20;99.90
3330;DHT22;1677;49.576;10.990;2023-04-15T12:36:22;11.10;99.90
3330;DHT22;1677;49.576;10.990;2023-04-15T12:38:48;11.10;99.90
3330;DHT22;1677;49.576;10.990;2023-04-15T12:41:14;10.80;99.90
3330;DHT22;1677;49.576;10.990;2023-04-15T12:43:40;10.80;99.90
3330;DHT22;1677;49.576;10.990;2023-04-15T12:46:06;10.80;99.90
3330;DHT22;1677;49.576;10.990;2023-04-15T12:48:33;10.80;99.90
3330;DHT22;1677;49.576;10.990;2023-04-15T12:50:59;10.70;99.90
3330;DHT22;1677;49.576;10.990;2023-04-15T12:53:24;10.70;99.90
3330;DHT22;1677;49.576;10.990;2023-04-15T12:55:50;10.80;99.90
3330;DHT22;1677;49.576;10.990;2023-04-15T12:58:16;10.80;99.90
3330;DHT22;1677;49.576;10.990;2023-04-15T13:00:42;10.80;99.90
3330;DHT22;1677;49.576;10.990;2023-04-15T13:03:08;10.90;99.90
3330;DHT22;1677;49.576;10.990;2023-04-15T13:05:33;11.00;99.90
3330;DHT22;1677;49.576;10.990;2023-04-15T13:08:01;11.00;99.90
3330;DHT22;1677;49.576;10.990;2023-04-15T13:10:28;11.00;99.90
3330;DHT22;1677;49.576;10.990;2023-04-15T13:12:54;11.00;99.90
3330;DHT22;1677;49.576;10.990;2023-04-15T13:15:21;11.00;99.90
3330;DHT22;1677;49.576;10.990;2023-04-15T13:17:47;11.10;99.90
3330;DHT22;1677;49.576;10.990;2023-04-15T13:20:13;11.10;99.90
3330;DHT22;1677;49.576;10.990;2023-04-15T13:22:39;11.00;99.90
3330;DHT22;1677;49.576;10.990;2023-04-15T13:25:06;11.00;99.90
3330;DHT22;1677;49.576;10.990;2023-04-15T13:27:31;11.00;99.90
3330;DHT22;1677;49.576;10.990;2023-04-15T13:29:58;10.90;99.90
3330;DHT22;1677;49.576;10.990;2023-04-15T13:32:24;10.90;99.90
3330;DHT22;1677;49.576;10.990;2023-04-15T13:34:50;10.80;99.90
3330;DHT22;1677;49.576;10.990;2023-04-15T13:37:15;10.60;99.90
3330;DHT22;1677;49.576;10.990;2023-04-15T13:39:41;10.60;99.90
3330;DHT22;1677;49.576;10.990;2023-04-15T13:42:07;10.50;99.90
3330;DHT22;1677;49.576;10.990;2023-04-15T13:44:32;10.50;99.90
3330;DHT22;1677;49.576;10.990;2023-04-15T13:46:58;10.40;99.90
3330;DHT22;1677;49.576;10.990;2023-04-15T13:49:23;10.40;99.90
3330;DHT22;1677;49.576;10.990;2023-04-15T13:51:50;10.30;99.90
3330;DHT22;1677;49.576;10.990;2023-04-15T13:54:16;10.20;99.90
3330;DHT22;1677;49.576;10.990;2023-04-15T13:56:41;10.30;99.90
3330;DHT22;1677;49.576;10.990;2023-04-15T13:59:07;10.20;99.90
3330;DHT22;1677;49.576;10.990;2023-04-15T14:01:34;10.20;99.90
3330;DHT22;1677;49.576;10.990;2023-04-15T14:04:00;10.10;99.90
3330;DHT22;1677;49.576;10.990;2023-04-15T14:06:35;10.20;99.90
3330;DHT22;1677;49.576;10.990;2023-04-15T14:09:04;10.20;99.90
3330;DHT22;1677;49.576;10.990;2023-04-15T14:11:29;10.30;99.90
3330;DHT22;1677;49.576;10.990;2023-04-15T14:13:55;10.20;99.90
3330;DHT22;1677;49.576;10.990;2023-04-15T14:16:21;10.30;99.90
3330;DHT22;1677;49.576;10.990;2023-04-15T14:18:46;10.10;99.90
3330;DHT22;1677;49.576;10.990;2023-04-15T14:21:12;10.20;99.90
3330;DHT22;1677;49.576;10.990;2023-04-15T14:23:41;10.10;99.90
3330;DHT22;1677;49.576;10.990;2023-04-15T14:26:07;10.10;99.90
3330;DHT22;1677;49.576;10.990;2023-04-15T14:28:32;10.10;99.90
3330;DHT22;1677;49.576;10.990;2023-04-15T14:30:58;10.00;99.90
3330;DHT22;1677;49.576;10.990;2023-04-15T14:33:23;10.00;99.90
3330;DHT22;1677;49.576;10.990;2023-04-15T14:35:50;10.10;99.90
3330;DHT22;1677;49.576;10.990;2023-04-15T14:38:15;10.10;99.90
3330;DHT22;1677;49.576;10.990;2023-04-15T14:40:41;10.10;99.90
3330;DHT22;1677;49.576;10.990;2023-04-15T14:43:07;10.10;99.90
3330;DHT22;1677;49.576;10.990;2023-04-15T14:45:32;10.00;99.90
3330;DHT22;1677;49.576;10.990;2023-04-15T14:47:59;9.90;99.90
3330;DHT22;1677;49.576;10.990;2023-04-15T14:50:24;9.90;99.90
3330;DHT22;1677;49.576;10.990;2023-04-15T14:52:50;9.90;99.90
3330;DHT22;1677;49.576;10.990;2023-04-15T14:55:15;10.00;99.90
3330;DHT22;1677;49.576;10.990;2023-04-15T14:57:42;9.90;99.90
3330;DHT22;1677;49.576;10.990;2023-04-15T15:00:09;9.90;99.90
3330;DHT22;1677;49.576;10.990;2023-04-15T15:02:35;9.80;99.90
3330;DHT22;1677;49.576;10.990;2023-04-15T15:05:01;9.80;99.90
3330;DHT22;1677;49.576;10.990;2023-04-15T15:07:27;9.80;99.90
3330;DHT22;1677;49.576;10.990;2023-04-15T15:09:53;9.70;99.90
3330;DHT22;1677;49.576;10.990;2023-04-15T15:12:19;9.60;99.90
3330;DHT22;1677;49.576;10.990;2023-04-15T15:14:44;9.80;99.90
3330;DHT22;1677;49.576;10.990;2023-04-15T15:17:10;9.70;99.90
3330;DHT22;1677;49.576;10.990;2023-04-15T15:19:35;9.60;99.90
3330;DHT22;1677;49.576;10.990;2023-04-15T15:22:02;9.60;99.90
3330;DHT22;1677;49.576;10.990;2023-04-15T15:24:28;9.70;99.90
3330;DHT22;1677;49.576;10.990;2023-04-15T15:26:54;9.60;99.90
3330;DHT22;1677;49.576;10.990;2023-04-15T15:29:19;9.60;99.90
3330;DHT22;1677;49.576;10.990;2023-04-15T15:31:45;9.70;99.90
3330;DHT22;1677;49.576;10.990;2023-04-15T15:34:10;9.70;99.90
3330;DHT22;1677;49.576;10.990;2023-04-15T15:36:36;9.60;99.90
3330;DHT22;1677;49.576;10.990;2023-04-15T15:39:02;9.40;99.90
3330;DHT22;1677;49.576;10.990;2023-04-15T15:41:28;9.30;99.90
3330;DHT22;1677;49.576;10.990;2023-04-15T15:43:53;9.20;99.90
3330;DHT22;1677;49.576;10.990;2023-04-15T15:46:19;9.40;99.90
3330;DHT22;1677;49.576;10.990;2023-04-15T15:48:45;9.20;99.90
3330;DHT22;1677;49.576;10.990;2023-04-15T15:51:10;9.30;99.90
3330;DHT22;1677;49.576;10.990;2023-04-15T15:53:37;9.30;99.90
3330;DHT22;1677;49.576;10.990;2023-04-15T15:56:03;9.40;99.90
3330;DHT22;1677;49.576;10.990;2023-04-15T15:58:32;9.20;99.90
3330;DHT22;1677;49.576;10.990;2023-04-15T16:00:58;9.20;99.90
3330;DHT22;1677;49.576;10.990;2023-04-15T16:03:24;9.20;99.90
3330;DHT22;1677;49.576;10.990;2023-04-15T16:05:49;9.20;99.90
3330;DHT22;1677;49.576;10.990;2023-04-15T16:08:15;9.30;99.90